German Valley, Illinois
Current Conditions -  °F | °C
As of 5:55 AM on Friday 19 Dec 2014 (Local Time) from KFEP Reporting Station
Overcast Overcast  
Wind Chill: 25°   Ceiling: 1400
Heat Index: 25°   Visibility: 10mi
Dew Point: 20°   Wind: 3mph
Humidity: 82%   Direction: 310°NW
Pressure: 30.3"   Gusts: NA
Location:  42.22°N, 89.47°W
Report Text: KFEP 191155Z AUTO 31003KT 10SM OVC014 M04/M06 A3030 RMK AO2 T10391065 11038 21040
Loading
Personal Weather Stations






























Interactive Weather Map New forecast layout! Learn more

10-Day Weather Forecast

Advertisements
Track Severe Weather on mobile